createdAt,value
2019-04-28T00:02:05.963Z,99241.75
2019-04-28T00:04:35.412Z,99246.78
2019-04-28T00:07:04.907Z,99246.25
2019-04-28T00:09:34.346Z,99253.45
2019-04-28T00:12:04.048Z,99253.50
2019-04-28T00:14:33.539Z,99258.34
2019-04-28T00:17:03.027Z,99255.83
2019-04-28T00:19:32.481Z,99255.70
2019-04-28T00:22:20.942Z,99252.30
2019-04-28T00:25:01.619Z,99265.41
2019-04-28T00:27:31.673Z,99267.09
2019-04-28T00:30:02.080Z,99271.18
2019-04-28T00:32:32.539Z,99274.89
2019-04-28T00:35:02.478Z,99265.98
2019-04-28T00:37:32.804Z,99264.47
2019-04-28T00:40:02.250Z,99269.47
2019-04-28T00:42:32.030Z,99271.42
2019-04-28T00:45:01.919Z,99279.47
2019-04-28T00:47:31.483Z,99268.98
2019-04-28T00:50:02.114Z,99256.45
2019-04-28T00:52:32.194Z,99252.69
2019-04-28T00:55:01.659Z,99249.64
2019-04-28T00:57:31.142Z,99252.73
2019-04-28T01:00:02.465Z,99258.30
2019-04-28T01:02:41.092Z,99257.31
2019-04-28T01:05:11.594Z,99260.95
2019-04-28T01:07:41.534Z,99258.20
2019-04-28T01:10:11.837Z,99256.06
2019-04-28T01:12:41.579Z,99250.30
2019-04-28T01:15:13.844Z,99250.39
2019-04-28T01:20:36.072Z,99246.05
2019-04-28T01:23:05.576Z,99239.43
2019-04-28T01:25:35.025Z,99241.57
2019-04-28T01:28:04.525Z,99242.34
2019-04-28T01:30:50.464Z,99236.15
2019-04-28T01:33:37.772Z,99235.41
2019-04-28T01:36:07.494Z,99240.92
2019-04-28T01:38:37.170Z,99238.16
2019-04-28T01:41:06.605Z,99233.39
2019-04-28T01:43:36.312Z,99240.53
2019-04-28T01:46:06.126Z,99242.09
2019-04-28T01:48:35.571Z,99237.71
2019-04-28T01:51:05.004Z,99240.90
2019-04-28T01:53:34.847Z,99237.13
2019-04-28T01:56:04.545Z,99245.59
2019-04-28T01:58:33.976Z,99245.02
2019-04-28T02:01:03.871Z,99249.63
2019-04-28T02:03:33.305Z,99254.53
2019-04-28T02:06:03.857Z,99251.03
2019-04-28T02:08:33.609Z,99245.52
2019-04-28T02:11:03.316Z,99243.04
2019-04-28T02:13:32.775Z,99243.12
2019-04-28T02:16:02.452Z,99243.34
2019-04-28T02:18:32.472Z,99241.30
2019-04-28T02:21:09.721Z,99241.11
2019-04-28T02:23:39.667Z,99245.72
2019-04-28T02:26:09.759Z,99240.57
2019-04-28T02:28:40.721Z,99242.48
2019-04-28T02:31:11.603Z,99239.41
2019-04-28T02:33:41.099Z,99240.16
2019-04-28T02:36:12.266Z,99236.02
2019-04-28T02:38:41.752Z,99238.55
2019-04-28T02:41:11.264Z,99235.17
2019-04-28T02:43:41.014Z,99239.16
2019-04-28T02:46:11.148Z,99242.86
2019-04-28T02:48:40.579Z,99242.05
2019-04-28T02:51:17.614Z,99240.50
2019-04-28T02:53:47.052Z,99232.23
2019-04-28T02:56:16.832Z,99236.42
2019-04-28T02:58:46.295Z,99228.75
2019-04-28T03:01:22.860Z,99222.59
2019-04-28T03:03:47.140Z,99223.61
2019-04-28T03:06:16.571Z,99219.84
2019-04-28T03:08:46.039Z,99219.23
2019-04-28T03:11:15.469Z,99212.91
2019-04-28T03:13:45.199Z,99216.47
2019-04-28T03:16:14.634Z,99212.12
2019-04-28T03:18:44.076Z,99213.77
2019-04-28T03:21:13.824Z,99207.43
2019-04-28T03:23:43.270Z,99212.42
2019-04-28T03:26:23.402Z,99217.63
2019-04-28T03:28:57.283Z,99212.85
2019-04-28T03:32:07.350Z,99219.20
2019-04-28T03:34:03.942Z,99217.92
2019-04-28T03:36:33.821Z,99217.52
2019-04-28T03:39:04.821Z,99216.81
2019-04-28T03:41:34.243Z,99218.44
2019-04-28T03:44:04.543Z,99213.64
2019-04-28T03:46:38.264Z,99219.64
2019-04-28T03:49:10.805Z,99214.98
2019-04-28T03:51:40.912Z,99215.92
2019-04-28T03:54:10.716Z,99212.24
2019-04-28T03:56:41.334Z,99215.92
2019-04-28T03:59:11.193Z,99214.27
2019-04-28T04:01:55.988Z,99212.27
2019-04-28T04:04:12.367Z,99220.04
2019-04-28T04:06:41.812Z,99214.22
2019-04-28T04:09:11.563Z,99214.50
2019-04-28T04:11:42.634Z,99212.53
2019-04-28T04:14:30.997Z,99211.65
2019-04-28T04:17:02.535Z,99207.47
2019-04-28T04:19:33.626Z,99208.95
2019-04-28T04:22:03.060Z,99203.47
2019-04-28T04:24:32.760Z,99208.20
2019-04-28T04:27:02.186Z,99210.24
2019-04-28T04:29:31.690Z,99203.23
2019-04-28T04:32:11.683Z,99211.81
2019-04-28T04:34:32.822Z,99212.86
2019-04-28T04:37:02.528Z,99208.66
2019-04-28T04:39:31.963Z,99207.67
2019-04-28T04:42:01.394Z,99214.80
2019-04-28T04:44:31.144Z,99214.10
2019-04-28T04:47:01.122Z,99210.23
2019-04-28T04:49:31.630Z,99218.91
2019-04-28T04:52:01.200Z,99221.25
2019-04-28T04:54:32.791Z,99220.70
2019-04-28T04:57:01.787Z,99228.01
2019-04-28T04:59:32.872Z,99224.91
2019-04-28T05:02:29.481Z,99226.10
2019-04-28T05:04:54.518Z,99224.16
2019-04-28T05:07:23.947Z,99223.53
2019-04-28T05:09:53.638Z,99227.20
2019-04-28T05:12:23.066Z,99223.67
2019-04-28T05:14:52.511Z,99228.15
2019-04-28T05:17:21.938Z,99233.06
2019-04-28T05:19:51.654Z,99233.06
2019-04-28T05:22:22.724Z,99233.34
2019-04-28T05:24:57.110Z,99230.10
2019-04-28T05:27:26.824Z,99233.00
2019-04-28T05:29:57.017Z,99232.67
2019-04-28T05:32:40.182Z,99232.42
2019-04-28T05:35:00.113Z,99242.53
2019-04-28T05:37:30.035Z,99248.88
2019-04-28T05:40:00.901Z,99248.92
2019-04-28T05:42:30.804Z,99238.95
2019-04-28T05:45:00.259Z,99251.59
2019-04-28T05:47:30.620Z,99247.30
2019-04-28T05:50:10.746Z,99251.20
2019-04-28T05:53:00.395Z,99249.77
2019-04-28T05:55:47.076Z,99242.39
2019-04-28T05:58:34.228Z,99241.86
2019-04-28T06:01:06.156Z,99249.01
2019-04-28T06:03:36.673Z,99250.45
2019-04-28T06:06:06.355Z,99251.38
2019-04-28T06:08:35.886Z,99250.14
2019-04-28T06:11:23.019Z,99248.27
2019-04-28T06:13:52.726Z,99246.48
2019-04-28T06:16:22.419Z,99237.13
2019-04-28T06:18:52.138Z,99242.54
2019-04-28T06:21:21.838Z,99249.30
2019-04-28T06:23:51.862Z,99246.72
2019-04-28T06:26:21.559Z,99246.41
2019-04-28T06:28:50.985Z,99246.94
2019-04-28T06:31:20.478Z,99245.44
2019-04-28T06:33:49.907Z,99248.77
2019-04-28T06:36:19.685Z,99245.55
2019-04-28T06:38:49.963Z,99250.39
2019-04-28T06:41:19.397Z,99254.16
2019-04-28T06:43:48.825Z,99250.83
2019-04-28T06:46:18.257Z,99257.31
2019-04-28T06:48:48.028Z,99255.55
2019-04-28T06:51:17.461Z,99257.27
2019-04-28T06:53:47.149Z,99263.13
2019-04-28T06:56:16.585Z,99263.39
2019-04-28T06:58:58.197Z,99265.33
2019-04-28T07:01:17.175Z,99257.81
2019-04-28T07:03:46.890Z,99258.41
2019-04-28T07:06:16.558Z,99260.23
2019-04-28T07:08:46.006Z,99250.44
2019-04-28T07:11:15.714Z,99250.38
2019-04-28T07:13:45.150Z,99245.96
2019-04-28T07:16:14.582Z,99248.77
2019-04-28T07:18:44.022Z,99245.90
2019-04-28T07:21:31.048Z,99248.86
2019-04-28T07:24:00.496Z,99244.87
2019-04-28T07:26:29.925Z,99253.09
2019-04-28T07:28:59.367Z,99254.56
2019-04-28T07:31:29.115Z,99248.66
2019-04-28T07:33:58.969Z,99244.05
2019-04-28T07:36:28.675Z,99242.97
2019-04-28T07:38:58.383Z,99246.23
2019-04-28T07:41:27.813Z,99239.08
2019-04-28T07:43:57.258Z,99237.43
2019-04-28T07:46:26.699Z,99242.66
2019-04-28T07:48:56.382Z,99243.30
2019-04-28T07:51:27.753Z,99242.21
2019-04-28T07:54:02.217Z,99251.92
2019-04-28T07:56:30.242Z,99246.55
2019-04-28T07:58:59.674Z,99244.85
2019-04-28T08:01:29.454Z,99247.27
2019-04-28T08:03:59.164Z,99251.25
2019-04-28T08:06:28.864Z,99246.81
2019-04-28T08:08:58.309Z,99250.74
2019-04-28T08:11:27.744Z,99252.27
2019-04-28T08:13:57.186Z,99260.74
2019-04-28T08:16:26.618Z,99254.75
2019-04-28T08:18:56.314Z,99269.50
2019-04-28T08:21:25.750Z,99277.37
2019-04-28T08:23:55.504Z,99272.99
2019-04-28T08:26:24.936Z,99287.19
2019-04-28T08:28:54.720Z,99291.25
2019-04-28T08:31:25.796Z,99289.22
2019-04-28T08:34:02.521Z,99279.14
2019-04-28T08:36:28.555Z,99288.47
2019-04-28T08:38:57.996Z,99292.81
2019-04-28T08:41:27.423Z,99294.59
2019-04-28T08:43:57.171Z,99294.92
2019-04-28T08:46:26.597Z,99295.91
2019-04-28T08:48:56.282Z,99289.84
2019-04-28T08:51:25.712Z,99295.97
2019-04-28T08:53:55.499Z,99295.61
2019-04-28T08:56:24.935Z,99292.01
2019-04-28T08:58:54.374Z,99290.22
2019-04-28T09:01:24.110Z,99288.95
2019-04-28T09:03:53.813Z,99287.28
2019-04-28T09:06:23.527Z,99283.97
2019-04-28T09:08:53.234Z,99277.52
2019-04-28T09:11:22.914Z,99281.98
2019-04-28T09:13:52.348Z,99278.90
2019-04-28T09:16:21.781Z,99277.08
2019-04-28T09:18:51.665Z,99270.80
2019-04-28T09:21:21.101Z,99273.16
2019-04-28T09:23:50.978Z,99272.92
2019-04-28T09:26:20.686Z,99267.14
2019-04-28T09:28:50.189Z,99271.75
2019-04-28T09:31:19.899Z,99262.26
2019-04-28T09:33:49.716Z,99260.81
2019-04-28T09:36:19.146Z,99264.50
2019-04-28T09:38:48.665Z,99260.36
2019-04-28T09:41:18.103Z,99265.45
2019-04-28T09:43:55.006Z,99259.08
2019-04-28T09:46:28.770Z,99258.50
2019-04-28T09:48:58.273Z,99252.88
2019-04-28T09:51:27.734Z,99250.36
2019-04-28T09:53:57.166Z,99255.88
2019-04-28T09:56:27.333Z,99252.30
2019-04-28T09:58:56.770Z,99249.13
2019-04-28T10:01:26.545Z,99246.97
2019-04-28T10:03:55.983Z,99247.02
2019-04-28T10:06:25.498Z,99240.70
2019-04-28T10:08:54.941Z,99240.84
2019-04-28T10:11:30.737Z,99239.44
2019-04-28T10:13:57.093Z,99239.55
2019-04-28T10:16:26.580Z,99234.36
2019-04-28T10:18:56.018Z,99249.13
2019-04-28T10:21:25.465Z,99248.92
2019-04-28T10:23:54.897Z,99262.19
2019-04-28T10:26:24.663Z,99284.28
2019-04-28T10:28:54.372Z,99288.00
2019-04-28T10:31:24.082Z,99289.66
2019-04-28T10:33:55.399Z,99284.82
2019-04-28T10:36:25.449Z,99285.53
2019-04-28T10:38:56.801Z,99292.61
2019-04-28T10:41:33.881Z,99296.14
2019-04-28T10:44:03.310Z,99289.00
2019-04-28T10:46:34.380Z,99287.77
2019-04-28T10:49:03.815Z,99290.95
2019-04-28T10:51:33.526Z,99292.86
2019-04-28T10:54:03.140Z,99294.11
2019-04-28T10:56:32.572Z,99288.51
2019-04-28T10:59:02.270Z,99293.97
2019-04-28T11:01:31.689Z,99290.22
2019-04-28T11:04:05.690Z,99287.02
2019-04-28T11:06:38.400Z,99285.08
2019-04-28T11:09:15.622Z,99282.12
2019-04-28T11:11:45.067Z,99275.91
2019-04-28T11:14:14.815Z,99266.53
2019-04-28T11:16:44.562Z,99269.84
2019-04-28T11:19:14.315Z,99271.27
2019-04-28T11:21:43.765Z,99273.80
2019-04-28T11:24:13.672Z,99256.31
2019-04-28T11:26:43.120Z,99267.00
2019-04-28T11:29:12.896Z,99265.90
2019-04-28T11:31:42.596Z,99264.33
2019-04-28T11:34:14.659Z,99264.05
2019-04-28T11:36:45.012Z,99266.76
2019-04-28T11:39:16.435Z,99270.33
2019-04-28T11:41:45.952Z,99267.11
2019-04-28T11:44:16.422Z,99275.11
2019-04-28T11:46:45.942Z,99276.77
2019-04-28T11:49:15.625Z,99277.84
2019-04-28T11:51:45.384Z,99277.16
2019-04-28T11:54:15.200Z,99280.91
2019-04-28T11:56:44.906Z,99280.50
2019-04-28T11:59:14.613Z,99279.50
2019-04-28T12:01:44.055Z,99283.87
2019-04-28T12:04:15.137Z,99281.70
2019-04-28T12:06:44.584Z,99282.48
2019-04-28T12:09:24.822Z,99295.29
2019-04-28T12:11:55.914Z,99296.50
2019-04-28T12:14:26.997Z,99296.02
2019-04-28T12:17:14.586Z,99289.55
2019-04-28T12:19:57.958Z,99292.53
2019-04-28T12:22:27.670Z,99288.38
2019-04-28T12:24:57.103Z,99285.79
2019-04-28T12:27:26.883Z,99285.94
2019-04-28T12:29:56.330Z,99287.27
2019-04-28T12:32:26.097Z,99285.94
2019-04-28T12:34:55.531Z,99285.81
2019-04-28T12:37:24.981Z,99276.25
2019-04-28T12:39:54.710Z,99277.81
2019-04-28T12:42:24.155Z,99270.05
2019-04-28T12:44:53.923Z,99265.76
2019-04-28T12:47:23.635Z,99263.38
2019-04-28T12:52:49.680Z,99242.98
2019-04-28T12:55:19.390Z,99236.77
2019-04-28T12:57:49.093Z,99229.00
2019-04-28T13:00:32.363Z,99220.21
2019-04-28T13:03:19.695Z,99221.22
2019-04-28T13:06:02.305Z,99214.80
2019-04-28T13:08:25.303Z,99201.66
2019-04-28T13:10:54.736Z,99193.05
2019-04-28T13:13:24.524Z,99194.43
2019-04-28T13:15:53.964Z,99185.19
2019-04-28T13:18:23.737Z,99182.43
2019-04-28T13:20:53.449Z,99181.73
2019-04-28T13:23:22.897Z,99175.17
2019-04-28T13:25:52.335Z,99175.34
2019-04-28T13:28:21.774Z,99175.70
2019-04-28T13:30:51.212Z,99172.13
2019-04-28T13:33:20.657Z,99173.34
2019-04-28T13:35:50.374Z,99166.78
2019-04-28T13:38:20.180Z,99162.80
2019-04-28T13:40:49.863Z,99163.42
2019-04-28T13:43:19.596Z,99158.91
2019-04-28T13:45:49.033Z,99160.30
2019-04-28T13:48:18.489Z,99154.89
2019-04-28T13:50:49.108Z,99153.27
2019-04-28T13:53:19.045Z,99147.16
2019-04-28T13:55:48.306Z,99144.64
2019-04-28T13:58:19.420Z,99151.90
2019-04-28T14:00:57.630Z,99153.44
2019-04-28T14:03:37.481Z,99146.61
2019-04-28T14:06:08.553Z,99149.27
2019-04-28T14:08:37.997Z,99141.90
2019-04-28T14:11:07.693Z,99147.72
2019-04-28T14:13:37.129Z,99135.41
2019-04-28T14:16:06.572Z,99141.70
2019-04-28T14:18:36.922Z,99139.20
2019-04-28T14:21:08.020Z,99139.87
2019-04-28T14:23:37.996Z,99135.23
2019-04-28T14:26:07.687Z,99136.61
2019-04-28T14:28:37.146Z,99137.36
2019-04-28T14:31:06.843Z,99135.08
2019-04-28T14:33:36.621Z,99133.34
2019-04-28T14:36:06.052Z,99132.81
2019-04-28T14:38:35.854Z,99130.14
2019-04-28T14:41:05.570Z,99124.47
2019-04-28T14:43:35.240Z,99125.23
2019-04-28T14:46:04.750Z,99127.44
2019-04-28T14:48:34.191Z,99120.72
2019-04-28T14:51:03.710Z,99132.38
2019-04-28T14:53:33.152Z,99126.30
2019-04-28T14:56:02.609Z,99130.42
2019-04-28T14:58:32.368Z,99125.14
2019-04-28T15:01:03.461Z,99123.92
2019-04-28T15:03:34.792Z,99117.65
2019-04-28T15:06:06.289Z,99124.13
2019-04-28T15:08:35.492Z,99126.20
2019-04-28T15:11:10.647Z,99125.34
2019-04-28T15:13:40.354Z,99116.55
2019-04-28T15:16:09.799Z,99122.02
2019-04-28T15:18:39.240Z,99116.70
2019-04-28T15:21:08.770Z,99118.30
2019-04-28T15:23:38.195Z,99125.16
2019-04-28T15:26:07.971Z,99114.69
2019-04-28T15:28:37.687Z,99114.32
2019-04-28T15:31:07.496Z,99113.17
2019-04-28T15:33:37.578Z,99106.39
2019-04-28T15:36:07.346Z,99109.00
2019-04-28T15:38:37.038Z,99110.42
2019-04-28T15:41:20.626Z,99106.44
2019-04-28T15:43:37.710Z,99102.67
2019-04-28T15:46:07.495Z,99104.33
2019-04-28T15:48:36.932Z,99102.45
2019-04-28T15:51:06.516Z,99099.66
2019-04-28T15:53:36.723Z,99095.05
2019-04-28T15:56:14.115Z,99094.73
2019-04-28T15:58:43.547Z,99103.92
2019-04-28T16:01:13.241Z,99106.94
2019-04-28T16:03:42.673Z,99110.42
2019-04-28T16:06:12.118Z,99109.34
2019-04-28T16:08:41.554Z,99113.51
2019-04-28T16:11:11.003Z,99109.33
2019-04-28T16:13:40.743Z,99110.31
2019-04-28T16:16:10.208Z,99114.55
2019-04-28T16:18:39.638Z,99115.59
2019-04-28T16:21:09.330Z,99114.92
2019-04-28T16:23:39.100Z,99119.47
2019-04-28T16:26:08.592Z,99112.88
2019-04-28T16:28:38.381Z,99116.52
2019-04-28T16:31:07.822Z,99113.80
2019-04-28T16:33:37.268Z,99111.59
2019-04-28T16:36:06.720Z,99116.27
2019-04-28T16:38:36.155Z,99114.27
2019-04-28T16:41:05.853Z,99113.52
2019-04-28T16:43:35.359Z,99122.25
2019-04-28T16:46:05.117Z,99122.16
2019-04-28T16:48:34.825Z,99117.05
2019-04-28T16:51:04.533Z,99128.14
2019-04-28T16:53:34.242Z,99121.25
2019-04-28T16:56:12.415Z,99123.48
2019-04-28T16:58:52.403Z,99129.53
2019-04-28T17:01:21.908Z,99124.16
2019-04-28T17:03:51.613Z,99123.73
2019-04-28T17:06:21.338Z,99125.69
2019-04-28T17:08:50.778Z,99124.47
2019-04-28T17:11:20.467Z,99120.50
2019-04-28T17:13:49.906Z,99129.89
2019-04-28T17:16:19.350Z,99128.05
2019-04-28T17:18:48.789Z,99130.81
2019-04-28T17:21:18.493Z,99134.24
2019-04-28T17:23:48.379Z,99139.06
2019-04-28T17:26:18.076Z,99141.50
2019-04-28T17:28:47.512Z,99144.55
2019-04-28T17:31:17.290Z,99144.50
2019-04-28T17:33:46.737Z,99144.02
2019-04-28T17:36:16.185Z,99144.55
2019-04-28T17:38:45.620Z,99141.95
2019-04-28T17:41:15.409Z,99149.02
2019-04-28T17:43:44.916Z,99148.00
2019-04-28T17:46:14.365Z,99152.91
2019-04-28T17:48:45.437Z,99153.35
2019-04-28T17:51:15.122Z,99159.08
2019-04-28T17:53:44.812Z,99160.38
2019-04-28T17:56:14.582Z,99160.74
2019-04-28T17:58:44.398Z,99164.03
2019-04-28T18:01:15.745Z,99167.02
2019-04-28T18:03:49.517Z,99165.48
2019-04-28T18:06:26.204Z,99171.20
2019-04-28T18:08:55.638Z,99177.00
2019-04-28T18:11:25.328Z,99175.86
2019-04-28T18:13:54.776Z,99182.67
2019-04-28T18:16:44.195Z,99181.90
2019-04-28T18:19:21.391Z,99186.63
2019-04-28T18:21:50.844Z,99194.79
2019-04-28T18:24:20.520Z,99196.76
2019-04-28T18:26:49.954Z,99200.65
2019-04-28T18:29:19.713Z,99202.23
2019-04-28T18:31:56.491Z,99204.88
2019-04-28T18:34:39.823Z,99207.30
2019-04-28T18:37:11.997Z,99209.05
2019-04-28T18:39:59.289Z,99208.52
2019-04-28T18:42:40.480Z,99214.77
2019-04-28T18:45:11.221Z,99211.00
2019-04-28T18:47:40.669Z,99221.55
2019-04-28T18:50:10.443Z,99229.55
2019-04-28T18:52:39.894Z,99229.88
2019-04-28T18:55:09.752Z,99234.50
2019-04-28T18:57:39.458Z,99243.78
2019-04-28T19:00:09.475Z,99243.88
2019-04-28T19:02:38.937Z,99254.61
2019-04-28T19:05:10.517Z,99258.78
2019-04-28T19:07:41.652Z,99265.30
2019-04-28T19:10:12.788Z,99271.66
2019-04-28T19:13:00.138Z,99276.78
2019-04-28T19:15:37.054Z,99272.42
2019-04-28T19:18:08.472Z,99284.28
2019-04-28T19:20:37.901Z,99288.17
2019-04-28T19:23:07.676Z,99285.31
2019-04-28T19:25:37.107Z,99294.27
2019-04-28T19:28:06.887Z,99292.39
2019-04-28T19:30:36.335Z,99297.74
2019-04-28T19:33:06.005Z,99306.02
2019-04-28T19:35:35.441Z,99306.09
2019-04-28T19:38:04.965Z,99310.62
2019-04-28T19:40:34.651Z,99303.84
2019-04-28T19:43:04.456Z,99304.48
2019-04-28T19:45:35.541Z,99307.25
2019-04-28T19:48:05.289Z,99299.41
2019-04-28T19:50:35.088Z,99303.69
2019-04-28T19:53:04.774Z,99310.27
2019-04-28T19:55:35.864Z,99319.72
2019-04-28T19:58:09.646Z,99317.13
2019-04-28T20:00:49.896Z,99316.78
2019-04-28T20:03:19.396Z,99330.30
2019-04-28T20:05:48.847Z,99331.66
2019-04-28T20:08:18.618Z,99340.43
2019-04-28T20:10:48.352Z,99332.48
2019-04-28T20:13:17.781Z,99337.31
2019-04-28T20:15:47.545Z,99334.72
2019-04-28T20:18:16.977Z,99344.56
2019-04-28T20:20:47.107Z,99341.54
2019-04-28T20:23:16.873Z,99344.22
2019-04-28T20:25:46.319Z,99343.30
2019-04-28T20:28:16.002Z,99348.06
2019-04-28T20:30:45.503Z,99349.58
2019-04-28T20:33:15.192Z,99343.75
2019-04-28T20:35:46.273Z,99351.63
2019-04-28T20:38:17.704Z,99355.66
2019-04-28T20:40:55.686Z,99360.66
2019-04-28T20:43:26.691Z,99366.28
2019-04-28T20:45:56.144Z,99370.52
2019-04-28T20:48:25.568Z,99372.31
2019-04-28T20:50:55.250Z,99366.11
2019-04-28T20:53:24.949Z,99366.23
2019-04-28T20:55:54.659Z,99365.94
2019-04-28T20:58:24.098Z,99363.88
2019-04-28T21:00:53.877Z,99365.06
2019-04-28T21:03:23.544Z,99366.73
2019-04-28T21:05:53.291Z,99371.52
2019-04-28T21:08:22.995Z,99372.25
2019-04-28T21:10:52.706Z,99375.95
2019-04-28T21:13:22.517Z,99375.58
2019-04-28T21:15:52.879Z,99374.24
2019-04-28T21:18:22.576Z,99383.52
2019-04-28T21:20:52.571Z,99380.50
2019-04-28T21:23:22.065Z,99383.84
2019-04-28T21:25:51.509Z,99386.16
2019-04-28T21:28:20.940Z,99382.97
2019-04-28T21:30:50.687Z,99391.09
2019-04-28T21:33:20.123Z,99394.52
2019-04-28T21:35:49.918Z,99394.72
2019-04-28T21:38:19.355Z,99397.97
2019-04-28T21:40:49.618Z,99392.31
2019-04-28T21:43:20.980Z,99395.34
2019-04-28T21:45:52.988Z,99395.73
2019-04-28T21:48:38.807Z,99398.43
2019-04-28T21:51:11.468Z,99395.13
2019-04-28T21:53:39.477Z,99396.73
2019-04-28T21:56:09.165Z,99402.55
2019-04-28T21:58:38.891Z,99401.59
2019-04-28T22:01:11.254Z,99402.19
2019-04-28T22:03:40.756Z,99401.45
2019-04-28T22:06:10.471Z,99405.38
2019-04-28T22:08:39.904Z,99406.14
2019-04-28T22:11:09.349Z,99410.16
2019-04-28T22:13:38.857Z,99400.48
2019-04-28T22:16:08.901Z,99404.63
2019-04-28T22:18:38.331Z,99399.25
2019-04-28T22:21:07.775Z,99404.91
2019-04-28T22:23:39.184Z,99405.14
2019-04-28T22:26:09.504Z,99408.09
2019-04-28T22:28:38.925Z,99412.73
2019-04-28T22:31:08.610Z,99405.80
2019-04-28T22:33:38.403Z,99413.55
2019-04-28T22:36:08.079Z,99411.12
2019-04-28T22:38:37.760Z,99414.94
2019-04-28T22:41:07.636Z,99419.14
2019-04-28T22:43:37.337Z,99422.05
2019-04-28T22:46:06.774Z,99417.42
2019-04-28T22:48:36.239Z,99424.15
2019-04-28T22:51:06.059Z,99426.08
2019-04-28T22:53:37.413Z,99424.73
2019-04-28T22:56:21.661Z,99430.00
2019-04-28T22:58:52.812Z,99429.63
2019-04-28T23:01:24.422Z,99432.33
2019-04-28T23:04:11.884Z,99430.48
2019-04-28T23:06:41.688Z,99432.95
2019-04-28T23:09:13.206Z,99436.89
2019-04-28T23:11:42.632Z,99435.94
2019-04-28T23:14:12.080Z,99428.65
2019-04-28T23:16:41.576Z,99435.85
2019-04-28T23:19:12.663Z,99437.41
2019-04-28T23:21:42.190Z,99431.77
2019-04-28T23:24:11.901Z,99428.73
2019-04-28T23:26:41.341Z,99431.11
2019-04-28T23:29:10.779Z,99438.70
2019-04-28T23:31:40.210Z,99436.75
2019-04-28T23:34:09.653Z,99429.83
2019-04-28T23:36:39.088Z,99429.94
2019-04-28T23:39:09.749Z,99432.58
2019-04-28T23:41:40.821Z,99426.95
2019-04-28T23:44:10.268Z,99434.09
2019-04-28T23:46:56.412Z,99435.31
2019-04-28T23:49:30.195Z,99431.45
2019-04-28T23:52:03.053Z,99435.23
2019-04-28T23:54:34.130Z,99440.34
2019-04-28T23:57:03.560Z,99436.63
2019-04-28T23:59:33.065Z,99440.73
